createdAt,value
2019-02-19T00:00:52.671Z,6.69
2019-02-19T00:03:21.992Z,6.69
2019-02-19T00:05:51.469Z,6.63
2019-02-19T00:08:20.800Z,6.33
2019-02-19T00:10:50.596Z,6.56
2019-02-19T00:13:19.902Z,6.52
2019-02-19T00:15:49.471Z,6.50
2019-02-19T00:18:18.777Z,6.06
2019-02-19T00:20:48.301Z,6.49
2019-02-19T00:23:17.614Z,6.08
2019-02-19T00:25:47.188Z,6.39
2019-02-19T00:28:16.492Z,6.36
2019-02-19T00:30:46.105Z,6.29
2019-02-19T00:33:34.310Z,6.28
2019-02-19T00:36:04.888Z,6.27
2019-02-19T00:38:34.709Z,6.26
2019-02-19T00:41:04.038Z,6.22
2019-02-19T00:43:33.665Z,6.19
2019-02-19T00:46:02.991Z,6.19
2019-02-19T00:48:32.789Z,6.20
2019-02-19T00:51:02.100Z,6.17
2019-02-19T00:53:31.489Z,6.17
2019-02-19T00:59:15.415Z,6.20
2019-02-19T01:01:44.745Z,6.15
2019-02-19T01:04:14.055Z,6.05
2019-02-19T01:06:43.408Z,6.16
2019-02-19T01:09:12.723Z,6.17
2019-02-19T01:11:42.314Z,6.16
2019-02-19T01:14:11.607Z,6.15
2019-02-19T01:16:41.269Z,6.16
2019-02-19T01:19:10.630Z,6.11
2019-02-19T01:21:40.148Z,6.10
2019-02-19T01:24:09.481Z,6.08
2019-02-19T01:26:39.014Z,6.08
2019-02-19T01:29:08.303Z,6.08
2019-02-19T01:31:37.785Z,6.08
2019-02-19T01:34:07.109Z,6.08
2019-02-19T01:36:36.493Z,6.06
2019-02-19T01:39:45.209Z,6.05
2019-02-19T01:42:14.598Z,6.06
2019-02-19T01:44:43.898Z,5.77
2019-02-19T01:47:13.293Z,6.10
2019-02-19T01:49:42.662Z,5.81
2019-02-19T01:52:12.079Z,6.08
2019-02-19T01:55:00.464Z,6.08
2019-02-19T01:57:29.751Z,6.08
2019-02-19T02:00:18.180Z,6.08
2019-02-19T02:03:06.528Z,6.08
2019-02-19T02:05:36.085Z,6.08
2019-02-19T02:08:05.384Z,6.11
2019-02-19T02:10:34.891Z,6.12
2019-02-19T02:13:04.253Z,6.16
2019-02-19T02:15:33.566Z,6.17
2019-02-19T02:18:02.881Z,6.15
2019-02-19T02:20:32.817Z,6.12
2019-02-19T02:23:02.130Z,6.15
2019-02-19T02:25:31.536Z,6.17
2019-02-19T02:28:00.858Z,5.86
2019-02-19T02:30:30.440Z,6.17
2019-02-19T02:32:59.840Z,5.84
2019-02-19T02:35:29.625Z,6.14
2019-02-19T02:37:58.940Z,6.14
2019-02-19T02:40:28.406Z,6.14
2019-02-19T02:42:57.745Z,6.12
2019-02-19T02:45:27.365Z,6.14
2019-02-19T02:47:56.655Z,5.86
2019-02-19T02:50:26.137Z,6.15
2019-02-19T02:53:14.584Z,6.16
2019-02-19T02:56:02.796Z,6.17
2019-02-19T02:58:32.117Z,6.16
2019-02-19T03:01:01.673Z,6.18
2019-02-19T03:03:30.984Z,6.19
2019-02-19T03:06:20.688Z,6.21
2019-02-19T03:08:50.181Z,5.61
2019-02-19T03:11:19.472Z,6.22
2019-02-19T03:13:49.057Z,6.23
2019-02-19T03:16:18.383Z,6.26
2019-02-19T03:18:47.935Z,6.26
2019-02-19T03:21:17.220Z,5.70
2019-02-19T03:23:46.783Z,6.30
2019-02-19T03:26:16.105Z,6.21
2019-02-19T03:31:33.904Z,6.27
2019-02-19T03:34:03.270Z,6.30
2019-02-19T03:36:32.581Z,6.31
2019-02-19T03:39:01.901Z,6.31
2019-02-19T03:46:55.245Z,6.30
2019-02-19T03:49:43.695Z,6.28
2019-02-19T03:52:12.988Z,6.22
2019-02-19T03:54:42.475Z,6.22
2019-02-19T03:57:11.786Z,6.22
2019-02-19T03:59:41.299Z,6.22
2019-02-19T04:02:10.628Z,6.20
2019-02-19T04:04:40.159Z,6.18
2019-02-19T04:07:28.449Z,6.18
2019-02-19T04:09:57.836Z,6.17
2019-02-19T04:12:27.163Z,6.15
2019-02-19T04:14:56.443Z,6.16
2019-02-19T04:17:25.930Z,6.15
2019-02-19T04:19:55.268Z,6.15
2019-02-19T04:22:43.532Z,6.14
2019-02-19T04:25:12.929Z,6.10
2019-02-19T04:27:42.266Z,6.11
2019-02-19T04:30:30.714Z,6.10
2019-02-19T04:33:00.020Z,6.10
2019-02-19T04:35:29.372Z,6.08
2019-02-19T04:37:58.928Z,6.04
2019-02-19T04:40:28.295Z,6.03
2019-02-19T04:42:57.777Z,6.00
2019-02-19T04:45:27.120Z,5.99
2019-02-19T04:47:56.557Z,6.01
2019-02-19T04:50:25.933Z,6.00
2019-02-19T04:52:55.279Z,5.99
2019-02-19T04:55:24.785Z,6.01
2019-02-19T04:57:54.167Z,6.00
2019-02-19T05:00:42.640Z,6.01
2019-02-19T05:03:11.931Z,6.01
2019-02-19T05:05:41.257Z,5.99
2019-02-19T05:08:29.723Z,5.98
2019-02-19T05:10:59.060Z,5.97
2019-02-19T05:13:28.470Z,5.97
2019-02-19T05:16:16.818Z,5.93
2019-02-19T05:18:46.184Z,5.91
2019-02-19T05:21:15.619Z,5.87
2019-02-19T05:24:04.184Z,5.87
2019-02-19T05:26:52.452Z,5.84
2019-02-19T05:29:22.041Z,5.38
2019-02-19T05:31:51.392Z,5.54
2019-02-19T05:34:20.844Z,5.79
2019-02-19T05:36:50.162Z,5.78
2019-02-19T05:39:19.486Z,5.75
2019-02-19T05:42:08.040Z,5.45
2019-02-19T05:44:37.352Z,5.68
2019-02-19T05:47:07.043Z,5.66
2019-02-19T05:49:36.394Z,5.67
2019-02-19T05:52:06.127Z,5.66
2019-02-19T05:54:54.346Z,5.66
2019-02-19T05:57:23.670Z,5.65
2019-02-19T05:59:53.238Z,5.66
2019-02-19T06:02:22.548Z,5.67
2019-02-19T06:04:52.007Z,5.69
2019-02-19T06:07:21.334Z,5.68
2019-02-19T06:09:51.032Z,5.65
2019-02-19T06:12:20.487Z,5.69
2019-02-19T06:14:50.805Z,5.68
2019-02-19T06:17:20.130Z,5.68
2019-02-19T06:19:49.646Z,5.66
2019-02-19T06:22:19.044Z,5.67
2019-02-19T06:27:36.864Z,5.10
2019-02-19T06:30:08.505Z,5.64
2019-02-19T06:32:37.801Z,5.63
2019-02-19T06:35:26.147Z,5.63
2019-02-19T06:37:55.820Z,5.64
2019-02-19T06:40:29.493Z,5.61
2019-02-19T06:42:59.328Z,5.61
2019-02-19T06:45:28.667Z,5.61
2019-02-19T06:47:58.099Z,5.64
2019-02-19T06:50:27.435Z,5.63
2019-02-19T06:52:56.811Z,5.64
2019-02-19T06:55:26.131Z,5.64
2019-02-19T06:57:55.558Z,5.64
2019-02-19T07:00:24.855Z,5.66
2019-02-19T07:05:38.370Z,5.66
2019-02-19T07:08:07.770Z,5.64
2019-02-19T07:10:37.130Z,5.64
2019-02-19T07:13:06.430Z,5.63
2019-02-19T07:15:36.969Z,5.65
2019-02-19T07:18:25.721Z,5.66
2019-02-19T07:21:16.403Z,5.65
2019-02-19T07:24:05.620Z,5.63
2019-02-19T07:26:35.396Z,5.63
2019-02-19T07:29:05.928Z,5.62
2019-02-19T07:31:35.992Z,5.63
2019-02-19T07:34:44.908Z,5.65
2019-02-19T07:37:16.541Z,5.27
2019-02-19T07:43:14.595Z,5.40
2019-02-19T07:45:45.315Z,5.68
2019-02-19T07:48:15.131Z,5.69
2019-02-19T07:50:45.980Z,5.70
2019-02-19T07:53:15.941Z,5.69
2019-02-19T07:55:47.065Z,5.68
2019-02-19T07:58:16.760Z,5.71
2019-02-19T08:00:46.373Z,5.71
2019-02-19T08:03:35.583Z,5.73
2019-02-19T08:06:05.018Z,5.72
2019-02-19T08:08:34.657Z,5.71
2019-02-19T08:11:04.050Z,5.68
2019-02-19T08:13:33.732Z,5.71
2019-02-19T08:19:02.830Z,5.70
2019-02-19T08:21:32.697Z,5.74
2019-02-19T08:24:02.419Z,5.37
2019-02-19T08:26:51.036Z,5.71
2019-02-19T08:29:20.648Z,5.72
2019-02-19T08:31:50.366Z,5.13
2019-02-19T08:34:19.792Z,5.73
2019-02-19T08:36:49.147Z,5.74
2019-02-19T08:39:37.490Z,5.71
2019-02-19T08:42:06.942Z,5.72
2019-02-19T08:44:43.703Z,5.72
2019-02-19T08:47:42.373Z,5.68
2019-02-19T08:50:05.816Z,5.77
2019-02-19T08:52:35.121Z,5.79
2019-02-19T08:55:27.301Z,5.79
2019-02-19T08:57:56.760Z,5.72
2019-02-19T09:00:26.108Z,5.75
2019-02-19T09:02:55.437Z,5.73
2019-02-19T09:05:24.773Z,5.72
2019-02-19T09:07:54.397Z,5.71
2019-02-19T09:10:23.687Z,5.69
2019-02-19T09:12:53.024Z,5.74
2019-02-19T09:15:41.363Z,5.73
2019-02-19T09:18:10.672Z,5.68
2019-02-19T09:20:40.278Z,5.65
2019-02-19T09:23:28.725Z,5.44
2019-02-19T09:25:58.014Z,5.61
2019-02-19T09:28:27.401Z,5.58
2019-02-19T09:30:56.683Z,5.34
2019-02-19T09:33:26.250Z,5.61
2019-02-19T09:35:55.535Z,5.61
2019-02-19T09:38:25.088Z,5.59
2019-02-19T09:40:54.448Z,5.13
2019-02-19T09:43:23.870Z,5.64
2019-02-19T09:45:53.157Z,5.25
2019-02-19T09:48:41.522Z,5.71
2019-02-19T09:51:11.004Z,5.72
2019-02-19T09:53:40.300Z,5.83
2019-02-19T09:56:10.299Z,5.84
2019-02-19T09:58:39.573Z,5.25
2019-02-19T10:01:09.083Z,5.81
2019-02-19T10:03:38.372Z,5.82
2019-02-19T10:06:07.832Z,5.78
2019-02-19T10:08:37.131Z,5.86
2019-02-19T10:11:06.544Z,5.84
2019-02-19T10:13:35.850Z,5.56
2019-02-19T10:16:05.390Z,5.87
2019-02-19T10:18:34.669Z,5.84
2019-02-19T10:21:04.350Z,5.86
2019-02-19T10:23:52.781Z,5.58
2019-02-19T10:26:22.095Z,5.82
2019-02-19T10:28:51.625Z,5.86
2019-02-19T10:31:20.928Z,5.66
2019-02-19T10:33:50.461Z,5.84
2019-02-19T10:39:12.069Z,5.78
2019-02-19T10:41:41.417Z,5.79
2019-02-19T10:44:10.805Z,5.78
2019-02-19T10:46:40.084Z,5.79
2019-02-19T10:49:09.421Z,5.79
2019-02-19T10:51:38.789Z,5.78
2019-02-19T10:54:08.142Z,5.84
2019-02-19T10:56:37.532Z,5.77
2019-02-19T10:59:06.968Z,5.82
2019-02-19T11:01:36.346Z,5.82
2019-02-19T11:04:24.676Z,5.81
2019-02-19T11:06:53.979Z,5.87
2019-02-19T11:09:42.427Z,5.92
2019-02-19T11:12:11.809Z,5.94
2019-02-19T11:14:41.089Z,6.03
2019-02-19T11:17:10.440Z,6.04
2019-02-19T11:19:39.728Z,6.07
2019-02-19T11:22:09.256Z,6.08
2019-02-19T11:24:38.552Z,6.03
2019-02-19T11:27:08.075Z,6.03
2019-02-19T11:29:37.384Z,5.97
2019-02-19T11:32:06.898Z,6.00
2019-02-19T11:34:36.179Z,6.06
2019-02-19T11:37:05.462Z,6.16
2019-02-19T11:39:54.042Z,6.15
2019-02-19T11:42:23.337Z,6.15
2019-02-19T11:44:52.684Z,6.20
2019-02-19T11:47:26.553Z,5.92
2019-02-19T11:49:53.227Z,6.25
2019-02-19T11:52:22.529Z,6.33
2019-02-19T11:54:52.029Z,6.35
2019-02-19T11:57:32.688Z,6.38
2019-02-19T12:00:02.400Z,6.44
2019-02-19T12:02:33.141Z,6.54
2019-02-19T12:05:02.754Z,6.62
2019-02-19T12:07:32.096Z,6.63
2019-02-19T12:10:01.603Z,6.53
2019-02-19T12:12:31.025Z,6.51
2019-02-19T12:15:00.363Z,6.43
2019-02-19T12:17:48.695Z,6.14
2019-02-19T12:20:18.006Z,6.35
2019-02-19T12:25:35.664Z,6.07
2019-02-19T12:28:04.968Z,6.35
2019-02-19T12:30:34.278Z,6.37
2019-02-19T12:33:03.613Z,6.23
2019-02-19T12:35:33.032Z,6.59
2019-02-19T12:38:02.329Z,6.64
2019-02-19T12:40:31.654Z,6.73
2019-02-19T12:43:00.944Z,6.77
2019-02-19T12:45:30.282Z,6.79
2019-02-19T12:47:59.599Z,6.27
2019-02-19T12:50:29.259Z,6.84
2019-02-19T12:52:58.620Z,6.90
2019-02-19T12:55:28.292Z,6.86
2019-02-19T12:57:57.567Z,6.53
2019-02-19T13:00:27.213Z,6.84
2019-02-19T13:02:56.483Z,6.85
2019-02-19T13:05:26.170Z,6.89
2019-02-19T13:07:55.454Z,6.89
2019-02-19T13:10:25.491Z,6.88
2019-02-19T13:12:54.750Z,6.88
2019-02-19T13:15:24.262Z,6.79
2019-02-19T13:17:53.572Z,6.80
2019-02-19T13:20:23.009Z,6.83
2019-02-19T13:22:52.290Z,6.88
2019-02-19T13:25:21.759Z,7.01
2019-02-19T13:27:51.065Z,7.10
2019-02-19T13:30:20.409Z,7.16
2019-02-19T13:35:43.980Z,7.23
2019-02-19T13:38:13.288Z,6.97
2019-02-19T13:40:42.923Z,7.22
2019-02-19T13:46:00.467Z,7.33
2019-02-19T13:48:29.899Z,7.33
2019-02-19T13:50:59.186Z,7.06
2019-02-19T13:53:47.543Z,7.38
2019-02-19T13:56:17.154Z,7.42
2019-02-19T13:58:46.521Z,6.78
2019-02-19T14:01:16.045Z,7.49
2019-02-19T14:03:45.308Z,7.54
2019-02-19T14:06:14.787Z,7.54
2019-02-19T14:11:40.319Z,7.53
2019-02-19T14:14:28.464Z,7.12
2019-02-19T14:17:01.069Z,7.40
2019-02-19T14:19:47.868Z,7.36
2019-02-19T14:22:36.466Z,7.33
2019-02-19T14:25:25.502Z,7.24
2019-02-19T14:28:14.034Z,7.15
2019-02-19T14:31:02.298Z,7.05
2019-02-19T14:33:50.646Z,6.51
2019-02-19T14:36:38.935Z,7.05
2019-02-19T14:42:30.615Z,6.92
2019-02-19T14:45:08.908Z,6.95
2019-02-19T14:48:03.844Z,6.47
2019-02-19T14:51:01.093Z,6.52
2019-02-19T14:53:47.865Z,6.81
2019-02-19T14:56:33.075Z,6.83
2019-02-19T14:59:21.317Z,6.82
2019-02-19T15:02:02.827Z,6.82
2019-02-19T15:04:51.286Z,6.84
2019-02-19T15:07:48.622Z,6.58
2019-02-19T15:10:36.886Z,6.84
2019-02-19T15:13:31.106Z,6.88
2019-02-19T15:16:19.469Z,6.88
2019-02-19T15:19:08.103Z,6.86
2019-02-19T15:21:56.367Z,6.79
2019-02-19T15:24:44.716Z,6.76
2019-02-19T15:27:52.112Z,6.14
2019-02-19T15:30:40.419Z,6.66
2019-02-19T15:33:28.617Z,6.63
2019-02-19T15:36:15.494Z,6.63
2019-02-19T15:39:03.697Z,6.63
2019-02-19T15:41:52.252Z,6.64
2019-02-19T15:44:40.802Z,6.60
2019-02-19T15:47:29.297Z,6.59
2019-02-19T15:50:17.804Z,6.28
2019-02-19T15:53:05.995Z,6.43
2019-02-19T15:55:54.261Z,6.34
2019-02-19T15:58:33.687Z,6.34
2019-02-19T16:01:22.145Z,6.34
2019-02-19T16:04:10.432Z,6.33
2019-02-19T16:06:58.823Z,6.32
2019-02-19T16:09:47.213Z,6.30
2019-02-19T16:12:21.978Z,6.00
2019-02-19T16:15:16.465Z,6.24
2019-02-19T16:18:10.664Z,6.25
2019-02-19T16:20:58.856Z,6.24
2019-02-19T16:23:47.054Z,6.23
2019-02-19T16:26:35.283Z,6.22
2019-02-19T16:29:14.051Z,6.21
2019-02-19T16:32:21.300Z,6.19
2019-02-19T16:35:09.543Z,6.15
2019-02-19T16:37:58.027Z,6.12
2019-02-19T16:40:46.515Z,6.08
2019-02-19T16:43:33.743Z,6.08
2019-02-19T16:46:11.528Z,6.04
2019-02-19T16:48:58.540Z,6.00
2019-02-19T16:52:05.767Z,6.00
2019-02-19T16:54:53.995Z,5.95
2019-02-19T16:57:42.318Z,5.89
2019-02-19T17:03:32.071Z,5.83
2019-02-19T17:06:20.513Z,5.53
2019-02-19T17:09:08.780Z,5.47
2019-02-19T17:11:57.079Z,5.71
2019-02-19T17:14:45.296Z,5.66
2019-02-19T17:17:33.528Z,5.62
2019-02-19T17:20:17.783Z,5.60
2019-02-19T17:22:45.420Z,5.60
2019-02-19T17:25:33.655Z,5.56
2019-02-19T17:28:21.852Z,5.52
2019-02-19T17:31:10.037Z,5.51
2019-02-19T17:33:57.196Z,5.51
2019-02-19T17:37:04.435Z,5.52
2019-02-19T17:39:52.748Z,5.55
2019-02-19T17:42:39.623Z,5.53
2019-02-19T17:45:20.244Z,5.51
2019-02-19T17:48:08.569Z,5.41
2019-02-19T17:50:57.199Z,5.40
2019-02-19T17:53:45.399Z,5.31
2019-02-19T17:56:33.677Z,5.29
2019-02-19T17:59:22.000Z,5.22
2019-02-19T18:02:10.234Z,5.17
2019-02-19T18:04:58.438Z,5.15
2019-02-19T18:07:40.675Z,5.10
2019-02-19T18:10:28.916Z,5.09
2019-02-19T18:13:37.824Z,5.07
2019-02-19T18:16:25.951Z,4.76
2019-02-19T18:18:55.319Z,5.01
2019-02-19T18:21:24.691Z,4.98
2019-02-19T18:23:54.038Z,4.89
2019-02-19T18:26:23.503Z,4.93
2019-02-19T18:28:52.793Z,4.88
2019-02-19T18:31:22.131Z,4.90
2019-02-19T18:33:51.558Z,4.89
2019-02-19T18:36:20.842Z,4.87
2019-02-19T18:38:50.159Z,4.86
2019-02-19T18:41:19.472Z,4.87
2019-02-19T18:43:48.789Z,4.86
2019-02-19T18:46:18.080Z,4.85
2019-02-19T18:48:47.385Z,4.82
2019-02-19T18:51:16.753Z,4.81
2019-02-19T18:53:46.052Z,4.80
2019-02-19T18:56:15.375Z,4.78
2019-02-19T18:58:44.732Z,4.78
2019-02-19T19:01:14.204Z,4.78
2019-02-19T19:03:43.710Z,4.81
2019-02-19T19:06:13.031Z,4.79
2019-02-19T19:08:42.364Z,4.76
2019-02-19T19:11:11.684Z,4.74
2019-02-19T19:13:41.000Z,4.73
2019-02-19T19:16:10.679Z,4.71
2019-02-19T19:18:40.005Z,4.74
2019-02-19T19:21:09.433Z,4.74
2019-02-19T19:23:39.052Z,4.34
2019-02-19T19:26:08.458Z,4.76
2019-02-19T19:28:37.746Z,4.72
2019-02-19T19:31:07.562Z,4.74
2019-02-19T19:33:36.894Z,4.47
2019-02-19T19:36:06.552Z,4.71
2019-02-19T19:38:54.978Z,4.73
2019-02-19T19:41:24.469Z,4.72
2019-02-19T19:43:53.935Z,4.71
2019-02-19T19:46:23.639Z,4.70
2019-02-19T19:52:03.217Z,4.66
2019-02-19T19:54:33.150Z,4.66
2019-02-19T19:57:04.396Z,4.68
2019-02-19T19:59:34.067Z,4.65
2019-02-19T20:04:38.316Z,4.66
2019-02-19T20:07:07.686Z,4.66
2019-02-19T20:09:37.290Z,4.66
2019-02-19T20:12:06.670Z,4.63
2019-02-19T20:14:36.152Z,4.64
2019-02-19T20:17:05.536Z,4.63
2019-02-19T20:19:35.481Z,4.62
2019-02-19T20:22:04.976Z,4.62
2019-02-19T20:24:34.352Z,4.57
2019-02-19T20:27:24.908Z,4.57
2019-02-19T20:29:54.199Z,4.56
2019-02-19T20:32:23.516Z,4.53
2019-02-19T20:35:11.762Z,4.46
2019-02-19T20:37:41.059Z,4.55
2019-02-19T20:40:10.467Z,4.54
2019-02-19T20:42:39.773Z,4.52
2019-02-19T20:45:09.455Z,4.50
2019-02-19T20:47:38.803Z,4.48
2019-02-19T20:50:09.248Z,4.48
2019-02-19T20:52:38.546Z,4.45
2019-02-19T20:55:08.348Z,4.43
2019-02-19T20:57:37.649Z,4.45
2019-02-19T21:00:29.949Z,4.45
2019-02-19T21:02:59.279Z,4.43
2019-02-19T21:05:28.905Z,4.39
2019-02-19T21:07:58.221Z,4.38
2019-02-19T21:10:27.746Z,4.36
2019-02-19T21:15:45.296Z,4.33
2019-02-19T21:18:15.030Z,4.32
2019-02-19T21:20:44.315Z,4.33
2019-02-19T21:23:14.259Z,4.32
2019-02-19T21:25:43.534Z,4.33
2019-02-19T21:28:13.301Z,4.35
2019-02-19T21:30:42.581Z,4.33
2019-02-19T21:33:12.027Z,4.33
2019-02-19T21:35:41.350Z,4.33
2019-02-19T21:38:10.942Z,4.29
2019-02-19T21:40:40.271Z,4.29
2019-02-19T21:43:09.682Z,4.30
2019-02-19T21:45:38.987Z,4.30
2019-02-19T21:48:08.448Z,4.33
2019-02-19T21:50:37.802Z,4.35
2019-02-19T21:53:07.215Z,4.34
2019-02-19T21:55:55.608Z,4.36
2019-02-19T21:58:44.095Z,4.35
2019-02-19T22:01:13.390Z,4.34
2019-02-19T22:03:43.943Z,4.38
2019-02-19T22:06:13.403Z,4.33
2019-02-19T22:08:42.879Z,4.37
2019-02-19T22:11:12.152Z,4.36
2019-02-19T22:13:41.627Z,4.33
2019-02-19T22:16:10.914Z,4.35
2019-02-19T22:18:40.298Z,4.36
2019-02-19T22:21:28.680Z,4.34
2019-02-19T22:23:57.961Z,4.32
2019-02-19T22:26:27.256Z,4.29
2019-02-19T22:31:31.298Z,4.28
2019-02-19T22:34:00.687Z,4.25
2019-02-19T22:36:30.057Z,4.25
2019-02-19T22:38:59.395Z,4.23
2019-02-19T22:44:03.815Z,4.25
2019-02-19T22:46:33.111Z,4.25
2019-02-19T22:49:02.398Z,4.27
2019-02-19T22:51:31.683Z,3.77
2019-02-19T22:54:20.170Z,4.24
2019-02-19T22:56:49.549Z,3.83
2019-02-19T22:59:18.861Z,4.26
2019-02-19T23:04:57.162Z,4.01
2019-02-19T23:07:26.535Z,4.26
2019-02-19T23:09:55.824Z,3.98
2019-02-19T23:12:25.360Z,4.28
2019-02-19T23:14:54.628Z,4.30
2019-02-19T23:17:42.813Z,4.31
2019-02-19T23:23:00.828Z,3.68
2019-02-19T23:25:30.235Z,4.31
2019-02-19T23:30:48.281Z,4.33
2019-02-19T23:33:17.554Z,4.30
2019-02-19T23:36:05.989Z,4.33
2019-02-19T23:38:35.268Z,4.34
2019-02-19T23:41:04.547Z,4.07
2019-02-19T23:43:34.081Z,4.35
2019-02-19T23:46:03.380Z,4.37
2019-02-19T23:48:32.977Z,4.32
2019-02-19T23:51:02.271Z,4.33
2019-02-19T23:53:50.599Z,4.31
2019-02-19T23:56:20.245Z,4.33
2019-02-19T23:58:49.523Z,4.33
